ΕΜΥ, Εθνική Μετεωρολογική Υπηρεσία - Δελτία Καιρού, Προγνώσεις

ΑΕΡΟΝΑΥΤΙΛΙΑ

GREEK AIRPORTS CODES

LGIO 171550Z 32007KT 9999 BKN025 16/12 Q1001=

EUROPEAN AIRPORTS CODES

LFPO 171530Z 33006KT 300V360 9999 -SHRA FEW032 FEW040TCUBKN046 08/03 Q1014 TEMPO -SHRA=